Time;durP1;ratioP1;P1;durP2;ratioP2;P2;SDS_P1;SDS_P2;PMS_P1;PMS_P2;Temp;Humidity;BMP_temperature;BMP_pressure;BME280_temperature;BME280_humidity;BME280_pressure;Samples;Min_cycle;Max_cycle;Signal;HPM_P1;HPM_P2
2023/12/01 00:02:32;;;;;;;;;0.00;0.00;;;;;7.61;100.00;99882.75;5056552;28;45573;-85
2023/12/01 00:05:02;;;;;;;;;0.00;0.00;;;;;7.60;100.00;99879.34;5056683;28;45390;-86
2023/12/01 00:07:30;;;;;;;;;0.00;0.00;;;;;7.62;100.00;99881.88;5040032;28;45502;-86
2023/12/01 00:10:20;;;;;;;;;0.00;0.00;;;;;7.65;100.00;99881.75;5056424;28;47096;-85
2023/12/01 00:13:02;;;;;;;;;0.00;0.00;;;;;7.65;100.00;99877.47;5056320;28;45432;-85
2023/12/01 00:15:58;;;;;;;;;;;;;;;;;;;;;
2023/12/01 00:18:27;;;;;;;;;;;;;;;;;;;;;
2023/12/01 00:21:13;;;;;;;;;;;;;;;;;;;;;
2023/12/01 00:23:48;;;;;;;;;0.00;0.00;;;;;7.53;100.00;99878.66;5055877;28;72145;-85
2023/12/01 00:26:34;;;;;;;;;4.00;4.00;;;;;7.56;100.00;99888.09;5057386;28;45331;-85
2023/12/01 00:32:13;;;;;;;;;;;;;;;;;;;;;
2023/12/01 00:34:56;;;;;;;;;;;;;;;;;;;;;
2023/12/01 00:37:33;;;;;;;;;0.00;0.00;;;;;7.55;100.00;99881.22;5030130;28;70046;-86
2023/12/01 00:43:01;;;;;;;;;;;;;;;;;;;;;
2023/12/01 00:45:29;;;;;;;;;1.00;0.25;;;;;7.51;100.00;99882.19;5030912;28;73933;-86
2023/12/01 00:48:45;;;;;;;;;;;;;;;;;;;;;
2023/12/01 00:51:13;;;;;;;;;;;;;;;;;;;;;
2023/12/01 00:53:48;;;;;;;;;0.50;0.50;;;;;7.49;100.00;99892.59;5018958;28;75333;-86
2023/12/01 00:56:45;;;;;;;;;0.00;0.00;;;;;7.51;100.00;99897.75;5034552;28;45450;-86
2023/12/01 00:59:02;;;;;;;;;1.00;1.00;;;;;7.48;100.00;99892.63;5031938;28;45497;-85
2023/12/01 01:01:33;;;;;;;;;0.00;0.00;;;;;7.50;100.00;99896.03;5034542;28;45466;-86
2023/12/01 01:04:03;;;;;;;;;7.00;7.00;;;;;7.52;100.00;99896.81;5034544;28;47030;-86
2023/12/01 01:06:33;;;;;;;;;0.00;0.00;;;;;7.51;100.00;99883.03;5016992;28;45347;-86
2023/12/01 01:09:19;;;;;;;;;;;;;;;;;;;;;
2023/12/01 01:12:16;;;;;;;;;;;;;;;;;;;;;
2023/12/01 01:14:40;;;;;;;;;;;;;;;;;;;;;
2023/12/01 01:17:25;;;;;;;;;0.00;0.00;;;;;7.49;100.00;99877.06;5054656;28;73045;-86
2023/12/01 01:19:58;;;;;;;;;1.25;1.25;;;;;7.65;100.00;99892.13;5056750;28;45426;-85
2023/12/01 01:22:33;;;;;;;;;0.00;0.00;;;;;7.68;100.00;99903.25;5038918;28;45380;-86
2023/12/01 01:25:17;;;;;;;;;1.00;1.00;;;;;7.59;100.00;99900.94;5038412;28;46986;-85
2023/12/01 01:28:10;;;;;;;;;;;;;;;;;;;;;
2023/12/01 01:30:51;;;;;;;;;;;;;;;;;;;;;
2023/12/01 01:33:38;;;;;;;;;;;;;;;;;;;;;
2023/12/01 01:36:18;;;;;;;;;18.50;18.50;;;;;7.45;100.00;99903.09;5052768;28;75598;-86
2023/12/01 01:39:17;;;;;;;;;;;;;;;;;;;;;
2023/12/01 01:41:51;;;;;;;;;;;;;;;;;;;;;
2023/12/01 01:44:19;;;;;;;;;0.00;0.00;;;;;7.50;100.00;99901.22;5054062;28;70090;-85
2023/12/01 01:46:50;;;;;;;;;0.00;0.00;;;;;7.60;100.00;99909.56;5054692;28;46136;-85
2023/12/01 01:49:29;;;;;;;;;0.00;0.00;;;;;7.44;100.00;99902.22;5054414;28;45380;-85
2023/12/01 01:52:03;;;;;;;;;0.00;0.00;;;;;7.41;100.00;99898.88;5054831;28;45382;-86
2023/12/01 01:54:39;;;;;;;;;;;;;;;;;;;;;
2023/12/01 01:57:18;;;;;;;;;;;;;;;;;;;;;
2023/12/01 01:59:54;;;;;;;;;;;;;;;;;;;;;
2023/12/01 02:02:29;;;;;;;;;0.00;0.00;;;;;7.49;100.00;99900.38;5058756;28;67546;-85
2023/12/01 02:05:12;;;;;;;;;;;;;;;;;;;;;
2023/12/01 02:07:49;;;;;;;;;;;;;;;;;;;;;
2023/12/01 02:10:34;;;;;;;;;;;;;;;;;;;;;
2023/12/01 02:13:20;;;;;;;;;;;;;;;;;;;;;
2023/12/01 02:15:56;;;;;;;;;0.50;0.50;;;;;7.34;100.00;99917.19;5057532;28;71218;-86
2023/12/01 02:18:35;;;;;;;;;;;;;;;;;;;;;
2023/12/01 02:21:20;;;;;;;;;0.00;0.00;;;;;7.40;100.00;99925.69;5057076;28;72748;-85
2023/12/01 02:23:53;;;;;;;;;0.00;0.00;;;;;7.31;100.00;99937.16;5041533;28;45200;-86
2023/12/01 02:26:29;;;;;;;;;;;;;;;;;;;;;
2023/12/01 02:29:05;;;;;;;;;;;;;;;;;;;;;
2023/12/01 02:31:58;;;;;;;;;1.00;1.00;;;;;7.22;100.00;99933.06;5038365;28;72944;-86
2023/12/01 02:34:31;;;;;;;;;10.00;10.00;;;;;7.28;100.00;99930.31;5038217;28;45326;-86
2023/12/01 02:37:06;;;;;;;;;0.00;0.00;;;;;7.33;100.00;99925.00;5039254;28;45488;-85
2023/12/01 02:39:41;;;;;;;;;0.00;0.00;;;;;7.37;100.00;99931.78;5037337;28;47131;-86
2023/12/01 02:42:13;;;;;;;;;0.00;0.00;;;;;7.32;100.00;99933.69;5037721;28;45443;-85
2023/12/01 02:44:51;;;;;;;;;;;;;;;;;;;;;
2023/12/01 02:47:47;;;;;;;;;;;;;;;;;;;;;
2023/12/01 02:50:30;;;;;;;;;;;;;;;;;;;;;
2023/12/01 02:53:36;;;;;;;;;0.00;0.00;;;;;7.30;100.00;99941.47;5034531;28;73932;-86
2023/12/01 02:56:16;;;;;;;;;10.50;4.50;;;;;7.24;100.00;99939.03;5053734;28;45447;-85
2023/12/01 02:58:47;;;;;;;;;4.00;4.00;;;;;7.22;100.00;99938.25;5059003;28;45370;-86
2023/12/01 03:01:34;;;;;;;;;0.00;0.00;;;;;7.20;100.00;99936.59;5057535;28;48327;-86
2023/12/01 03:04:19;;;;;;;;;;;;;;;;;;;;;
2023/12/01 03:09:47;;;;;;;;;;;;;;;;;;;;;
2023/12/01 03:12:41;;;;;;;;;0.00;0.00;;;;;7.14;100.00;99933.28;5034304;28;75325;-86
2023/12/01 03:15:21;;;;;;;;;0.00;0.00;;;;;7.05;100.00;99933.53;5033219;28;45604;-86
2023/12/01 03:18:12;;;;;;;;;;;;;;;;;;;;;
2023/12/01 03:21:00;;;;;;;;;0.00;0.00;;;;;7.06;100.00;99937.84;5034976;28;71162;-86
2023/12/01 03:23:55;;;;;;;;;;;;;;;;;;;;;
2023/12/01 03:26:51;;;;;;;;;;;;;;;;;;;;;
2023/12/01 03:29:37;;;;;;;;;;;;;;;;;;;;;
2023/12/01 03:32:49;;;;;;;;;;;;;;;;;;;;;
2023/12/01 03:35:23;;;;;;;;;0.75;0.75;;;;;6.63;100.00;99946.72;5055793;28;46878;-86
2023/12/01 03:38:09;;;;;;;;;0.00;0.00;;;;;6.67;100.00;99937.16;5057633;28;45455;-86
2023/12/01 03:40:45;;;;;;;;;0.00;0.00;;;;;6.72;100.00;99943.03;5041207;28;45467;-86
2023/12/01 03:43:19;;;;;;;;;1.00;1.00;;;;;6.72;100.00;99943.03;5057956;28;45273;-86
2023/12/01 03:45:55;;;;;;;;;0.00;0.00;;;;;6.77;100.00;99951.53;5058362;28;45264;-85
2023/12/01 03:48:33;;;;;;;;;;;;;;;;;;;;;
2023/12/01 03:51:14;;;;;;;;;;;;;;;;;;;;;
2023/12/01 03:53:59;;;;;;;;;;;;;;;;;;;;;
2023/12/01 03:57:02;;;;;;;;;1.00;1.00;;;;;6.68;100.00;99954.34;5057049;28;74147;-86
2023/12/01 04:03:19;;;;;;;;;;;;;;;;;;;;;
2023/12/01 04:06:00;;;;;;;;;;;;;;;;;;;;;
2023/12/01 04:08:38;;;;;;;;;0.00;0.00;;;;;6.72;100.00;99974.94;5055757;28;76309;-86
2023/12/01 04:11:11;;;;;;;;;0.00;0.00;;;;;6.66;100.00;99969.06;5057480;28;45436;-86
2023/12/01 04:13:43;;;;;;;;;0.00;0.00;;;;;6.65;100.00;99965.63;5039801;28;45334;-86
2023/12/01 04:16:25;;;;;;;;;;;;;;;;;;;;;
2023/12/01 04:19:04;;;;;;;;;;;;;;;;;;;;;
2023/12/01 04:24:35;;;;;;;;;;;;;;;;;;;;;
2023/12/01 04:27:17;;;;;;;;;;;;;;;;;;;;;
2023/12/01 04:29:55;;;;;;;;;1.00;1.00;;;;;6.84;100.00;99981.53;5056317;28;74411;-85
2023/12/01 04:32:28;;;;;;;;;0.00;0.00;;;;;6.83;100.00;99977.22;5056084;28;45340;-86
2023/12/01 04:38:15;;;;;;;;;;;;;;;;;;;;;
2023/12/01 04:41:03;;;;;;;;;1.50;1.50;;;;;6.90;100.00;99976.19;5056281;28;75408;-86
2023/12/01 04:44:13;;;;;;;;;0.00;0.00;;;;;6.84;100.00;99976.34;5056142;28;45333;-87
2023/12/01 04:46:50;;;;;;;;;;;;;;;;;;;;;
2023/12/01 04:49:18;;;;;;;;;0.00;0.00;;;;;6.85;100.00;99990.13;5055968;28;69582;-86
2023/12/01 04:52:04;;;;;;;;;;;;;;;;;;;;;
2023/12/01 04:54:36;;;;;;;;;0.25;0.25;;;;;6.93;100.00;99990.81;5036101;28;72867;-86
2023/12/01 04:57:06;;;;;;;;;0.00;0.00;;;;;6.90;100.00;99986.53;5036138;28;45353;-86
2023/12/01 04:59:54;;;;;;;;;;;;;;;;;;;;;
2023/12/01 05:02:51;;;;;;;;;2.00;2.00;;;;;6.73;100.00;99976.63;5055685;28;75261;-85
2023/12/01 05:05:29;;;;;;;;;0.00;0.00;;;;;6.75;100.00;99985.19;5056293;28;45520;-87
2023/12/01 05:08:20;;;;;;;;;0.00;0.00;;;;;6.76;100.00;99981.72;5055752;28;45437;-85
2023/12/01 05:10:46;;;;;;;;;2.25;2.25;;;;;6.75;100.00;99981.78;5036905;28;45208;-86
2023/12/01 05:13:43;;;;;;;;;6.00;6.00;;;;;6.77;100.00;99985.16;5025428;28;47024;-86
2023/12/01 05:16:27;;;;;;;;;9.00;9.00;;;;;6.81;100.00;99989.34;5033078;28;45283;-86
2023/12/01 05:18:55;;;;;;;;;0.00;0.00;;;;;6.81;100.00;99996.28;5052730;28;45549;-86
2023/12/01 05:21:38;;;;;;;;;1.50;1.50;;;;;6.75;100.00;99987.78;5055526;28;45294;-86
2023/12/01 05:24:13;;;;;;;;;;;;;;;;;;;;;
2023/12/01 05:26:49;;;;;;;;;0.00;0.00;;;;;6.74;100.00;99996.44;5050859;28;72639;-86
2023/12/01 05:32:34;;;;;;;;;;;;;;;;;;;;;
2023/12/01 05:35:30;;;;;;;;;;;;;;;;;;;;;
2023/12/01 05:38:08;;;;;;;;;;;;;;;;;;;;;
2023/12/01 05:41:12;;;;;;;;;0.00;0.00;;;;;6.69;100.00;100003.47;5035627;28;68996;-86
2023/12/01 05:43:39;;;;;;;;;0.00;0.00;;;;;6.67;100.00;100005.25;5041806;28;45336;-86
2023/12/01 05:46:12;;;;;;;;;7.50;7.50;;;;;6.70;100.00;100005.16;5055358;28;48296;-86
2023/12/01 05:48:59;;;;;;;;;;;;;;;;;;;;;
2023/12/01 05:51:38;;;;;;;;;;;;;;;;;;;;;
2023/12/01 05:54:23;;;;;;;;;;;;;;;;;;;;;
2023/12/01 05:57:09;;;;;;;;;;;;;;;;;;;;;
2023/12/01 05:59:45;;;;;;;;;;;;;;;;;;;;;
2023/12/01 06:02:11;;;;;;;;;0.00;0.00;;;;;6.73;100.00;99999.91;5052644;28;68803;-86
2023/12/01 06:04:51;;;;;;;;;;;;;;;;;;;;;
2023/12/01 06:07:40;;;;;;;;;;;;;;;;;;;;;
2023/12/01 06:10:14;;;;;;;;;0.00;0.00;;;;;6.70;100.00;100001.72;5054160;28;71595;-86
2023/12/01 06:13:09;;;;;;;;;0.00;0.00;;;;;6.70;100.00;100001.72;5038765;28;45531;-86
2023/12/01 06:15:47;;;;;;;;;;;;;;;;;;;;;
2023/12/01 06:18:34;;;;;;;;;;;;;;;;;;;;;
2023/12/01 06:21:38;;;;;;;;;0.00;0.00;;;;;6.79;100.00;100014.41;5053947;28;73249;-86
2023/12/01 06:24:23;;;;;;;;;;;;;;;;;;;;;
2023/12/01 06:27:04;;;;;;;;;;;;;;;;;;;;;
2023/12/01 06:29:42;;;;;;;;;0.00;0.00;;;;;6.76;100.00;100019.66;5051413;28;76233;-86
2023/12/01 06:32:18;;;;;;;;;2.50;2.50;;;;;6.73;100.00;100020.59;5051667;28;45295;-87
2023/12/01 06:34:58;;;;;;;;;;;;;;;;;;;;;
2023/12/01 06:38:11;;;;;;;;;0.50;0.50;;;;;6.77;100.00;100027.38;5052975;28;71215;-85
2023/12/01 06:40:59;;;;;;;;;0.00;0.00;;;;;6.75;100.00;100016.22;5045995;28;47198;-86
2023/12/01 06:43:25;;;;;;;;;1.00;1.00;;;;;6.80;100.00;100034.25;5054364;28;45454;-82
2023/12/01 06:45:50;;;;;;;;;3.00;3.00;;;;;6.82;100.00;100034.22;5054222;28;65162;-80
2023/12/01 06:48:16;;;;;;;;;0.00;0.00;;;;;6.87;100.00;100037.50;5058556;28;45436;-82
2023/12/01 06:50:41;;;;;;;;;81.00;69.00;;;;;6.86;100.00;100030.66;5057495;28;52877;-82
2023/12/01 06:53:06;;;;;;;;;15.00;10.00;;;;;6.89;100.00;100041.78;5032661;28;70671;-82
2023/12/01 06:55:32;;;;;;;;;0.00;0.00;;;;;6.90;100.00;100040.88;5038421;28;45475;-82
2023/12/01 06:57:57;;;;;;;;;0.00;0.00;;;;;6.86;100.00;100036.66;5055476;28;45786;-83
2023/12/01 07:00:29;;;;;;;;;4.00;4.00;;;;;6.87;100.00;100038.38;5055605;28;74186;-81
2023/12/01 07:02:59;;;;;;;;;0.00;0.00;;;;;6.87;100.00;100043.56;5057009;28;45357;-84
2023/12/01 07:05:29;;;;;;;;;3.00;3.00;;;;;6.82;100.00;100040.22;5056946;28;45235;-84
2023/12/01 07:07:56;;;;;;;;;0.00;0.00;;;;;6.76;100.00;100032.59;5031461;28;45460;-85
2023/12/01 07:10:21;;;;;;;;;0.25;0.25;;;;;6.77;100.00;100034.31;5053403;28;47277;-83
2023/12/01 07:12:47;;;;;;;;;6.00;6.00;;;;;6.85;100.00;100039.28;5039620;28;45414;-83
2023/12/01 07:15:12;;;;;;;;;1.00;1.00;;;;;6.84;100.00;100045.38;5056096;28;45569;-83
2023/12/01 07:17:38;;;;;;;;;0.00;0.00;;;;;6.82;100.00;100050.56;5056962;28;45522;-84
2023/12/01 07:20:13;;;;;;;;;3.50;3.50;;;;;6.87;100.00;100053.03;5057080;28;46965;-92
2023/12/01 07:22:40;;;;;;;;;0.00;0.00;;;;;6.85;100.00;100054.81;5056767;28;45922;-85
2023/12/01 07:25:10;;;;;;;;;15.75;15.75;;;;;6.73;100.00;100051.63;5056992;28;45204;-84
2023/12/01 07:27:39;;;;;;;;;0.25;0.25;;;;;6.71;100.00;100053.41;5056996;28;45435;-85
2023/12/01 07:30:05;;;;;;;;;1.50;1.50;;;;;6.73;100.00;100058.56;5056610;28;48034;-86
2023/12/01 07:32:31;;;;;;;;;0.00;0.00;;;;;6.74;100.00;100058.53;5057569;28;45396;-86
2023/12/01 07:34:56;;;;;;;;;0.00;0.00;;;;;6.74;100.00;100060.25;5056576;28;55387;-86
2023/12/01 07:37:21;;;;;;;;;0.00;0.00;;;;;6.63;100.00;100057.94;5039265;28;62239;-86
2023/12/01 07:39:47;;;;;;;;;0.00;0.00;;;;;6.70;100.00;100051.69;5055581;28;75676;-86
2023/12/01 07:42:12;;;;;;;;;0.00;0.00;;;;;6.65;100.00;100050.09;5039006;28;72979;-86
2023/12/01 07:44:38;;;;;;;;;1.00;1.00;;;;;6.64;100.00;100062.19;5039742;28;51980;-86
2023/12/01 07:47:07;;;;;;;;;0.00;0.00;;;;;6.64;100.00;100061.34;5040290;28;45386;-86
2023/12/01 07:49:32;;;;;;;;;0.00;0.00;;;;;6.84;100.00;100053.97;5040743;28;47421;-86
2023/12/01 07:51:58;;;;;;;;;0.00;0.00;;;;;6.83;100.00;100049.66;5040088;28;45713;-86
2023/12/01 07:54:23;;;;;;;;;4.00;4.00;;;;;6.81;100.00;100056.63;5056534;28;46786;-85
2023/12/01 07:56:49;;;;;;;;;1.33;1.33;;;;;6.71;100.00;100055.16;5040111;28;45527;-86
2023/12/01 07:59:14;;;;;;;;;0.00;0.00;;;;;6.79;100.00;100053.22;5055603;28;55942;-86
2023/12/01 08:01:39;;;;;;;;;0.33;0.33;;;;;6.87;100.00;100063.38;5039845;28;46472;-86
2023/12/01 08:04:05;;;;;;;;;0.00;0.00;;;;;6.90;100.00;100068.50;5056475;28;45322;-85
2023/12/01 08:06:30;;;;;;;;;3.00;3.00;;;;;6.92;100.00;100059.78;5057186;28;53779;-86
2023/12/01 08:08:56;;;;;;;;;3.00;3.00;;;;;6.97;100.00;100076.06;5055297;28;61757;-86
2023/12/01 08:11:21;;;;;;;;;0.00;0.00;;;;;7.02;100.00;100068.19;5055254;28;68751;-86
2023/12/01 08:13:47;;;;;;;;;1.33;1.33;;;;;7.08;100.00;100074.97;5056205;28;45938;-86
2023/12/01 08:16:12;;;;;;;;;0.00;0.00;;;;;7.14;100.00;100069.63;5056697;28;45458;-86
2023/12/01 08:18:37;;;;;;;;;0.00;0.00;;;;;7.21;100.00;100076.34;5055890;28;48992;-86
2023/12/01 08:21:03;;;;;;;;;1.00;1.00;;;;;7.23;100.00;100082.31;5055968;28;53098;-86
2023/12/01 08:23:28;;;;;;;;;0.00;0.00;;;;;7.20;100.00;100086.72;5036199;28;45434;-87
2023/12/01 08:25:57;;;;;;;;;0.00;0.00;;;;;7.18;100.00;100091.94;5035934;28;61438;-83
2023/12/01 08:28:22;;;;;;;;;0.00;0.00;;;;;7.20;100.00;100092.75;5048601;28;68017;-85
2023/12/01 08:30:48;;;;;;;;;5.75;4.50;;;;;7.19;100.00;100096.25;5049225;28;45652;-85
2023/12/01 08:33:13;;;;;;;;;2.67;2.67;;;;;7.14;100.00;100095.50;5034186;28;57013;-84
2023/12/01 08:35:38;;;;;;;;;6.00;6.00;;;;;7.13;100.00;100096.38;5053503;28;62508;-85
2023/12/01 08:38:04;;;;;;;;;0.00;0.00;;;;;7.10;100.00;100086.13;5056217;28;46203;-85
2023/12/01 08:40:29;;;;;;;;;0.00;0.00;;;;;7.10;100.00;100089.53;5050097;28;54314;-85
2023/12/01 08:42:54;;;;;;;;;8.50;8.50;;;;;7.10;100.00;100080.94;5037127;28;45401;-84
2023/12/01 08:45:20;;;;;;;;;0.00;0.00;;;;;7.12;100.00;100085.19;5038503;28;45433;-84
2023/12/01 08:47:46;;;;;;;;;0.00;0.00;;;;;7.15;100.00;100086.81;5068210;28;45389;-84
2023/12/01 08:50:11;;;;;;;;;7.00;7.00;;;;;7.15;100.00;100086.81;5035727;28;45374;-85
2023/12/01 08:52:38;;;;;;;;;0.00;0.00;;;;;7.21;100.00;100091.03;5055913;28;45420;-84
2023/12/01 08:55:05;;;;;;;;;15.00;15.00;;;;;7.16;100.00;100086.78;5034008;28;45548;-84
2023/12/01 08:57:30;;;;;;;;;1.50;1.50;;;;;7.18;100.00;100091.94;5045982;28;46170;-85
2023/12/01 08:59:55;;;;;;;;;16.00;10.00;;;;;7.24;100.00;100094.38;5037405;28;54423;-85
2023/12/01 09:02:21;;;;;;;;;0.00;0.00;;;;;7.25;100.00;100096.06;5047693;28;59581;-84
2023/12/01 09:04:46;;;;;;;;;0.00;0.00;;;;;7.25;100.00;100098.66;5053879;28;67454;-84
2023/12/01 09:07:11;;;;;;;;;20.50;20.50;;;;;7.25;100.00;100090.91;5051417;28;67087;-84
2023/12/01 09:09:37;;;;;;;;;0.50;0.50;;;;;7.32;100.00;100096.78;5043712;28;45386;-83
2023/12/01 09:12:02;;;;;;;;;1.00;1.00;;;;;7.36;100.00;100095.81;5054273;28;45409;-83
2023/12/01 09:14:27;;;;;;;;;0.25;0.25;;;;;7.33;100.00;100094.13;5055862;28;45259;-83
2023/12/01 09:16:53;;;;;;;;;3.00;3.00;;;;;7.30;100.00;100104.59;5054068;28;46567;-83
2023/12/01 09:19:18;;;;;;;;;1.00;1.00;;;;;7.25;100.00;100095.25;5036542;28;71909;-83
2023/12/01 09:21:43;;;;;;;;;3.00;1.00;;;;;7.17;100.00;100113.56;5052906;28;45424;-83
2023/12/01 09:24:09;;;;;;;;;0.00;0.00;;;;;7.11;100.00;100104.19;5053106;28;67942;-83
2023/12/01 09:26:34;;;;;;;;;0.00;0.00;;;;;7.13;100.00;100112.78;5053486;28;46076;-85
2023/12/01 09:29:02;;;;;;;;;0.00;0.00;;;;;7.08;100.00;100117.22;5037355;28;45354;-84
2023/12/01 09:31:27;;;;;;;;;0.00;0.00;;;;;7.00;100.00;100116.53;5058865;28;45322;-84
2023/12/01 09:33:53;;;;;;;;;0.00;0.00;;;;;6.97;100.00;100121.78;5034231;28;47932;-84
2023/12/01 09:36:18;;;;;;;;;0.00;0.00;;;;;6.92;100.00;100114.13;5046135;28;45498;-84
2023/12/01 09:38:44;;;;;;;;;0.00;0.00;;;;;6.93;100.00;100122.75;5033409;28;70406;-84
2023/12/01 09:41:10;;;;;;;;;3.00;3.00;;;;;6.91;100.00;100129.69;5039832;28;45369;-84
2023/12/01 09:43:38;;;;;;;;;0.25;0.25;;;;;6.90;100.00;100136.59;5048492;28;45505;-83
2023/12/01 09:46:04;;;;;;;;;0.00;0.00;;;;;6.92;100.00;100134.81;5039839;28;45449;-83
2023/12/01 09:48:34;;;;;;;;;0.00;0.00;;;;;6.86;100.00;100142.75;5045098;28;45270;-83
2023/12/01 09:50:59;;;;;;;;;0.00;0.00;;;;;6.92;100.00;100145.19;5037014;28;45458;-83
2023/12/01 09:53:25;;;;;;;;;0.00;0.00;;;;;6.87;100.00;100149.63;5054309;28;69352;-83
2023/12/01 09:55:50;;;;;;;;;2.50;2.50;;;;;6.90;100.00;100154.72;5041760;28;47053;-83
2023/12/01 09:58:16;;;;;;;;;0.00;0.00;;;;;6.94;100.00;100165.84;5021215;28;45353;-84
2023/12/01 10:00:43;;;;;;;;;0.00;0.00;;;;;6.93;100.00;100158.97;5032262;28;45488;-86
2023/12/01 10:03:12;;;;;;;;;0.25;0.25;;;;;6.96;100.00;100170.13;5033171;28;45366;-86
2023/12/01 10:05:37;;;;;;;;;0.00;0.00;;;;;6.98;100.00;100175.22;5035151;28;45702;-85
2023/12/01 10:08:04;;;;;;;;;0.00;0.00;;;;;7.00;100.00;100183.81;5034080;28;45580;-86
2023/12/01 10:10:30;;;;;;;;;1.00;1.00;;;;;7.06;100.00;100183.69;5033942;28;45423;-85
2023/12/01 10:13:04;;;;;;;;;0.00;0.00;;;;;7.09;100.00;100174.97;5052713;28;45520;-85
2023/12/01 10:15:30;;;;;;;;;0.00;0.00;;;;;7.12;100.00;100185.28;5054075;28;46717;-84
2023/12/01 10:18:23;;;;;;;;;0.00;0.00;;;;;7.14;100.00;100194.69;5035713;28;45678;-86
2023/12/01 10:20:57;;;;;;;;;1.00;1.00;;;;;7.15;100.00;100198.13;5036018;28;45521;-85
2023/12/01 10:23:23;;;;;;;;;0.00;0.00;;;;;7.14;100.00;100193.84;5042138;28;45445;-85
2023/12/01 10:25:50;;;;;;;;;0.00;0.00;;;;;7.10;100.00;100200.84;5039175;28;46132;-85
2023/12/01 10:28:16;;;;;;;;;0.00;0.00;;;;;7.18;100.00;100195.47;5058756;28;45322;-85
2023/12/01 10:30:53;;;;;;;;;3.50;3.50;;;;;7.12;100.00;100199.06;5037871;28;45440;-85
2023/12/01 10:33:19;;;;;;;;;0.00;0.00;;;;;7.17;100.00;100202.41;5037630;28;45446;-86
2023/12/01 10:36:01;;;;;;;;;1.50;0.00;;;;;7.15;100.00;100204.19;5037287;28;46792;-85
2023/12/01 10:38:26;;;;;;;;;0.00;0.00;;;;;7.16;100.00;100212.78;5041360;28;45475;-85
2023/12/01 10:40:53;;;;;;;;;0.75;0.75;;;;;7.11;100.00;100204.25;5053863;28;45337;-87
2023/12/01 10:43:20;;;;;;;;;2.25;2.25;;;;;7.02;100.00;100207.06;5027505;28;45547;-85
2023/12/01 10:45:48;;;;;;;;;3.25;1.00;;;;;6.97;100.00;100205.44;5057182;28;47529;-85
2023/12/01 10:48:15;;;;;;;;;0.00;0.00;;;;;6.88;100.00;100202.22;5048826;28;45664;-87
2023/12/01 10:50:42;;;;;;;;;0.00;0.00;;;;;6.82;100.00;100198.03;5042387;28;45504;-86
2023/12/01 10:53:09;;;;;;;;;0.00;0.00;;;;;6.78;100.00;100191.22;5057427;28;45375;-86
2023/12/01 10:55:37;;;;;;;;;0.00;0.00;;;;;6.72;100.00;100194.81;5054256;28;47185;-86
2023/12/01 10:58:06;;;;;;;;;0.00;0.00;;;;;6.72;100.00;100197.38;5054375;28;45492;-85
2023/12/01 11:00:33;;;;;;;;;0.00;0.00;;;;;6.63;100.00;100200.16;5046191;28;45472;-87
2023/12/01 11:03:22;;;;;;;;;;;;;;;;;;;;;
2023/12/01 11:06:04;;;;;;;;;;;;;;;;;;;;;
2023/12/01 11:08:52;;;;;;;;;0.00;0.00;;;;;6.61;100.00;100203.66;5035295;28;72986;-91
2023/12/01 11:11:49;;;;;;;;;;;;;;;;;;;;;
2023/12/01 11:14:20;;;;;;;;;3.00;0.25;;;;;6.59;100.00;100195.91;5044373;28;69341;-90
2023/12/01 11:17:22;;;;;;;;;0.00;0.00;;;;;6.55;100.00;100191.69;5037487;28;46627;-89
2023/12/01 11:20:13;;;;;;;;;0.00;0.00;;;;;6.47;100.00;100191.03;5004637;28;46213;-88
2023/12/01 11:22:52;;;;;;;;;0.00;0.00;;;;;6.44;100.00;100183.31;5022944;28;45411;-87
2023/12/01 11:25:40;;;;;;;;;0.00;0.00;;;;;6.47;100.00;100184.13;4992941;28;45353;-84
2023/12/01 11:28:27;;;;;;;;;0.00;0.00;;;;;6.46;100.00;100177.22;5035369;28;46585;-87
2023/12/01 11:31:08;;;;;;;;;0.00;0.00;;;;;6.51;100.00;100182.31;5008616;28;45557;-87
2023/12/01 11:33:37;;;;;;;;;0.00;0.00;;;;;6.52;100.00;100173.66;5015672;28;45539;-85
2023/12/01 11:36:22;;;;;;;;;0.00;0.00;;;;;6.56;100.00;100172.72;5014450;28;45482;-84
2023/12/01 11:39:27;;;;;;;;;0.00;0.00;;;;;6.56;100.00;100165.81;5035579;28;46360;-85
2023/12/01 11:41:58;;;;;;;;;1.00;1.00;;;;;6.56;100.00;100165.81;5030870;28;45609;-85
2023/12/01 11:44:27;;;;;;;;;0.00;0.00;;;;;6.56;100.00;100168.41;5023498;28;45375;-87
2023/12/01 11:46:59;;;;;;;;;0.00;0.00;;;;;6.56;100.00;100162.38;5015548;28;45554;-85
2023/12/01 11:49:38;;;;;;;;;1.00;1.00;;;;;6.59;100.00;100163.19;5019575;28;47262;-88
2023/12/01 11:52:05;;;;;;;;;0.00;0.00;;;;;6.54;100.00;100159.00;5001011;28;45749;-87
2023/12/01 11:54:35;;;;;;;;;5.00;3.50;;;;;6.52;100.00;100163.31;5003192;28;45453;-86
2023/12/01 11:57:02;;;;;;;;;0.00;0.00;;;;;6.55;100.00;100168.44;5047330;28;45555;-87
2023/12/01 11:59:28;;;;;;;;;0.75;0.75;;;;;6.46;100.00;100160.88;5056831;28;46958;-85
2023/12/01 12:01:54;;;;;;;;;0.00;0.00;;;;;6.47;100.00;100162.59;5055481;28;53582;-86
2023/12/01 12:04:20;;;;;;;;;0.00;0.00;;;;;6.45;100.00;100160.03;5053286;28;45500;-85
2023/12/01 12:07:00;;;;;;;;;0.75;0.75;;;;;6.43;100.00;100166.13;5051049;28;45488;-88
2023/12/01 12:09:27;;;;;;;;;0.00;0.00;;;;;6.46;100.00;100156.53;5053037;28;46102;-84
2023/12/01 12:11:58;;;;;;;;;0.25;0.25;;;;;6.56;100.00;100158.06;5054488;28;45568;-86
2023/12/01 12:14:30;;;;;;;;;0.00;0.00;;;;;6.68;100.00;100159.50;5053460;28;45452;-86
2023/12/01 12:17:01;;;;;;;;;0.00;0.00;;;;;6.74;100.00;100153.34;5037036;28;45384;-87
2023/12/01 12:19:29;;;;;;;;;0.00;0.00;;;;;6.75;100.00;100155.06;5019721;28;47108;-88
2023/12/01 12:22:00;;;;;;;;;0.00;0.00;;;;;6.78;100.00;100158.44;5034418;28;45435;-87
2023/12/01 12:24:33;;;;;;;;;3.00;3.00;;;;;6.82;100.00;100160.97;5024843;28;45469;-88
2023/12/01 12:27:00;;;;;;;;;0.00;0.00;;;;;6.77;100.00;100156.72;5045373;28;45792;-87
2023/12/01 12:29:26;;;;;;;;;0.50;0.50;;;;;6.81;100.00;100162.69;5056838;28;46143;-86
2023/12/01 12:31:53;;;;;;;;;0.00;0.00;;;;;6.81;100.00;100173.03;5033735;28;46082;-87
2023/12/01 12:34:26;;;;;;;;;0.00;0.00;;;;;6.82;100.00;100156.63;5041003;28;45421;-85
2023/12/01 12:37:48;;;;;;;;;0.00;0.00;;;;;6.88;100.00;100164.25;5036255;28;45525;-86
2023/12/01 12:40:18;;;;;;;;;;;;;;;;;;;;;
2023/12/01 12:43:24;;;;;;;;;;;;;;;;;;;;;
2023/12/01 12:46:22;;;;;;;;;1.00;1.00;;;;;7.05;100.00;100161.25;5043866;28;69222;-89
2023/12/01 12:49:09;;;;;;;;;0.00;0.00;;;;;6.93;100.00;100167.59;5043306;28;45400;-87
2023/12/01 12:51:35;;;;;;;;;0.00;0.00;;;;;6.87;100.00;100169.44;5038701;28;47199;-87
2023/12/01 12:54:42;;;;;;;;;0.50;0.50;;;;;6.96;100.00;100172.69;5018967;28;45420;-89
2023/12/01 12:57:15;;;;;;;;;0.00;0.00;;;;;6.94;100.00;100165.84;5036417;28;45285;-89
2023/12/01 12:59:40;;;;;;;;;1.00;1.00;;;;;6.91;100.00;100153.84;5038682;28;49671;-88
2023/12/01 13:02:06;;;;;;;;;0.00;0.00;;;;;6.88;100.00;100164.25;5051264;28;58590;-87
2023/12/01 13:04:31;;;;;;;;;0.00;0.00;;;;;6.89;100.00;100168.56;5038709;28;46066;-87
2023/12/01 13:06:57;;;;;;;;;0.00;0.00;;;;;6.86;100.00;100165.19;5056616;28;45372;-87
2023/12/01 13:09:38;;;;;;;;;0.00;0.00;;;;;6.84;100.00;100159.19;5055434;28;61683;-88
2023/12/01 13:12:57;;;;;;;;;;;;;;;;;;;;;
2023/12/01 13:15:56;;;;;;;;;0.00;0.00;;;;;6.79;100.00;100162.72;4966359;28;72851;-88
2023/12/01 13:18:38;;;;;;;;;0.50;0.50;;;;;6.83;100.00;100152.31;4971542;28;45728;-89
2023/12/01 13:21:07;;;;;;;;;0.00;0.00;;;;;6.84;100.00;100154.88;4975583;28;45618;-90
2023/12/01 13:23:32;;;;;;;;;0.00;0.00;;;;;6.84;100.00;100162.63;4958840;28;47207;-87
2023/12/01 13:25:57;;;;;;;;;0.00;0.00;;;;;6.77;100.00;100161.91;4954220;28;66934;-87
2023/12/01 13:29:08;;;;;;;;;0.00;0.00;;;;;6.67;100.00;100164.75;4973771;28;61852;-91
2023/12/01 13:32:20;;;;;;;;;0.00;0.00;;;;;6.58;100.00;100164.03;4975158;28;45610;-92
2023/12/01 13:34:45;;;;;;;;;0.00;0.00;;;;;6.48;100.00;100169.44;4909661;28;47308;-84
2023/12/01 13:37:28;;;;;;;;;0.00;0.00;;;;;6.46;100.00;100166.03;4923599;28;74529;-87
2023/12/01 13:40:00;;;;;;;;;0.00;0.00;;;;;6.47;100.00;100163.44;4904472;28;45307;-89
2023/12/01 13:42:29;;;;;;;;;0.00;0.00;;;;;6.54;100.00;100177.09;4897164;29;45387;-87
2023/12/01 13:44:55;;;;;;;;;0.00;0.00;;;;;6.51;100.00;100175.41;4898005;28;47324;-85
2023/12/01 13:47:21;;;;;;;;;0.00;0.00;;;;;6.58;100.00;100183.91;4920682;28;45470;-85
2023/12/01 13:49:46;;;;;;;;;0.00;0.00;;;;;6.56;100.00;100173.56;4901150;28;45647;-84
2023/12/01 13:52:12;;;;;;;;;0.00;0.00;;;;;6.52;100.00;100181.41;4947818;28;48883;-84
2023/12/01 13:54:37;;;;;;;;;0.00;0.00;;;;;6.43;100.00;100179.91;4976666;28;72809;-84
2023/12/01 13:57:02;;;;;;;;;0.00;0.00;;;;;6.36;100.00;100178.31;4979575;28;66552;-86
2023/12/01 13:59:28;;;;;;;;;0.00;0.00;;;;;6.31;100.00;100183.56;4962361;28;61622;-85
2023/12/01 14:01:53;;;;;;;;;0.67;0.67;;;;;6.25;100.00;100198.34;4976573;28;69966;-85
2023/12/01 14:04:18;;;;;;;;;0.00;0.00;;;;;6.17;100.00;100193.34;4995963;28;77545;-85